Time;durP1;ratioP1;P1;durP2;ratioP2;P2;SDS_P1;SDS_P2;PMS_P1;PMS_P2;Temp;Humidity;BMP_temperature;BMP_pressure;BME280_temperature;BME280_humidity;BME280_pressure;Samples;Min_cycle;Max_cycle;Signal;HPM_P1;HPM_P2
2021/12/16 00:02:06;;;;;;;2.85;2.40;;;20.00;44.10;;;23.87;29.23;102712.13;5099685;28;20043;-85
2021/12/16 00:05:15;;;;;;;2.40;2.20;;;20.00;44.40;;;23.88;29.25;102716.56;5079887;28;20168;-85
2021/12/16 00:07:35;;;;;;;2.47;2.28;;;20.00;44.10;;;23.88;29.30;102718.38;5100046;28;20142;-85
2021/12/16 00:10:22;;;;;;;2.65;2.45;;;20.00;44.10;;;23.90;29.13;102714.69;5098223;28;20040;-85
2021/12/16 00:29:57;;;;;;;3.67;2.58;;;20.00;44.10;;;23.84;29.32;102710.50;5052066;28;20041;-85
2021/12/16 00:32:30;;;;;;;2.35;2.00;;;20.00;44.10;;;23.86;29.27;102713.09;5085602;28;20054;-85
2021/12/16 00:34:57;;;;;;;2.45;2.25;;;19.90;44.10;;;23.85;29.19;102706.88;5079916;28;20052;-85
2021/12/16 00:37:24;;;;;;;2.17;1.98;;;19.90;44.10;;;23.88;29.12;102713.03;5096257;28;20081;-85
2021/12/16 00:39:50;;;;;;;2.80;2.38;;;20.00;44.10;;;23.87;29.28;102704.13;5095686;28;20457;-85
2021/12/16 00:42:34;;;;;;;2.40;2.08;;;20.00;44.10;;;23.86;29.34;102707.75;5079577;28;20048;-85
2021/12/16 00:45:20;;;;;;;2.67;2.47;;;20.00;44.10;;;23.85;29.12;102720.22;5065481;28;20071;-85
2021/12/16 00:55:51;;;;;;;1.70;1.48;;;19.90;44.00;;;23.93;29.19;102711.00;5095752;28;20139;-85
2021/12/16 00:58:24;;;;;;;2.30;2.10;;;20.00;44.10;;;23.83;29.31;102706.06;5079705;28;20059;-85
2021/12/16 01:01:13;;;;;;;2.40;2.20;;;19.90;44.00;;;23.89;28.95;102720.09;5079936;28;20036;-85
2021/12/16 01:03:50;;;;;;;2.67;2.20;;;20.00;44.10;;;23.86;29.34;102721.97;5081854;28;20040;-85
2021/12/16 01:10:09;;;;;;;3.80;2.28;;;19.90;44.00;;;23.88;29.24;102724.56;5037199;28;20196;-85
2021/12/16 01:35:28;;;;;;;3.40;2.10;;;20.00;44.10;;;23.81;29.25;102747.13;5081371;28;20118;-85
2021/12/16 01:51:37;;;;;;;2.10;1.90;;;19.90;44.60;;;23.81;29.30;102761.34;5079960;28;20032;-85
2021/12/16 01:54:43;;;;;;;2.50;2.00;;;20.00;44.10;;;23.82;29.23;102772.91;5063818;28;20043;-85
2021/12/16 01:57:25;;;;;;;3.42;2.22;;;19.90;44.00;;;23.78;29.30;102764.16;5081581;28;20046;-85
2021/12/16 02:00:06;;;;;;;2.20;2.00;;;19.90;44.00;;;23.84;29.18;102766.59;5077881;28;20055;-85
2021/12/16 02:02:49;;;;;;;2.25;2.05;;;19.90;44.00;;;23.85;29.21;102759.44;5081680;28;20036;-85
2021/12/16 02:05:53;;;;;;;2.50;2.30;;;20.00;44.10;;;23.80;29.40;102754.25;5078672;28;20134;-85
2021/12/16 02:08:24;;;;;;;3.25;1.80;;;20.00;44.10;;;23.82;29.31;102759.56;5065324;28;20438;-85
2021/12/16 02:11:12;;;;;;;2.22;2.03;;;19.90;44.00;;;23.85;29.30;102770.13;5079115;28;20046;-85
2021/12/16 02:27:16;;;;;;;2.20;2.00;;;20.00;44.00;;;23.86;29.05;102772.72;5077931;28;20074;-85
2021/12/16 02:27:37;;;;;;;2.33;2.00;;;19.90;44.00;;;23.82;29.19;102784.50;5080470;28;20092;-85
2021/12/16 02:35:47;;;;;;;2.33;2.13;;;19.90;44.00;;;23.82;29.11;102792.50;5080457;28;20047;-85
2021/12/16 02:38:19;;;;;;;2.63;2.20;;;19.90;44.00;;;23.82;29.27;102794.28;5094827;28;20063;-85
2021/12/16 02:40:48;;;;;;;2.33;2.13;;;19.90;44.10;;;23.80;29.34;102786.31;5075867;28;20052;-85
2021/12/16 02:48:34;;;;;;;2.28;2.08;;;19.90;44.10;;;23.82;29.26;102786.28;5080352;28;20471;-85
2021/12/16 02:51:12;;;;;;;2.13;1.92;;;19.90;44.10;;;23.77;29.24;102788.25;5078642;28;20388;-85
2021/12/16 02:53:44;;;;;;;2.05;1.88;;;19.90;44.20;;;23.79;29.30;102776.59;5077662;28;21305;-85
2021/12/16 02:56:11;;;;;;;2.20;2.00;;;19.90;44.10;;;23.80;29.23;102783.63;5077298;28;20039;-85
2021/12/16 02:58:41;;;;;;;2.10;1.90;;;19.90;44.10;;;23.74;29.31;102780.38;5076996;28;20183;-85
2021/12/16 03:01:19;;;;;;;1.75;1.42;;;19.90;44.10;;;23.85;29.13;102799.50;5094597;28;20117;-84
2021/12/16 03:03:45;;;;;;;1.90;1.80;;;19.90;44.10;;;23.83;29.25;102794.22;5080077;28;20044;-85
2021/12/16 03:06:12;;;;;;;2.00;1.80;;;19.90;44.10;;;23.82;29.34;102797.84;5097457;28;20040;-85
2021/12/16 03:08:40;;;;;;;2.10;1.80;;;19.90;44.10;;;23.78;29.32;102793.53;5097900;28;20086;-85
2021/12/16 03:11:27;;;;;;;2.17;1.98;;;19.90;44.10;;;23.80;29.12;102815.69;5080740;28;20040;-85
2021/12/16 03:17:07;;;;;;;1.90;1.77;;;19.90;44.10;;;23.80;29.13;102821.03;5080405;28;20408;-85
2021/12/16 03:19:56;;;;;;;2.20;2.00;;;19.90;44.10;;;23.84;29.15;102824.50;5102608;28;20046;-85
2021/12/16 03:22:48;;;;;;;2.20;2.00;;;19.90;44.00;;;23.83;29.08;102826.28;5067237;28;20048;-85
2021/12/16 03:25:25;;;;;;;2.38;1.90;;;19.90;44.10;;;23.82;29.08;102807.66;5100639;28;20059;-85
2021/12/16 03:28:26;;;;;;;2.15;1.95;;;19.90;44.10;;;23.84;29.29;102825.38;5098051;28;20058;-85
2021/12/16 03:31:23;;;;;;;1.98;1.73;;;19.80;44.10;;;23.84;29.19;102825.38;5085443;28;20536;-85
2021/12/16 03:37:01;;;;;;;1.65;1.55;;;19.90;44.10;;;23.81;29.26;102827.28;5083104;28;20480;-85
2021/12/16 03:39:32;;;;;;;2.30;2.08;;;19.90;44.10;;;23.77;29.14;102821.19;5081944;28;20048;-85
2021/12/16 03:41:59;;;;;;;2.00;1.80;;;19.90;44.00;;;23.82;29.25;102824.56;5080548;28;20044;-84
2021/12/16 03:44:37;;;;;;;1.80;1.70;;;19.90;44.00;;;23.83;29.19;102820.94;5080396;28;20075;-85
2021/12/16 03:47:05;;;;;;;2.17;1.70;;;19.90;43.90;;;23.81;29.25;102819.25;5065085;28;20043;-85
2021/12/16 03:49:33;;;;;;;1.95;1.80;;;20.00;44.00;;;23.81;29.30;102816.59;5079587;28;20510;-85
2021/12/16 03:52:06;;;;;;;2.00;1.80;;;19.90;44.00;;;23.83;29.40;102820.09;5080451;28;20395;-85
2021/12/16 03:54:49;;;;;;;2.50;2.28;;;20.00;43.90;;;23.83;29.31;102807.59;5064571;28;20048;-85
2021/12/16 03:57:20;;;;;;;1.92;1.73;;;19.90;43.90;;;23.85;29.15;102816.41;5080525;28;20054;-85
2021/12/16 03:59:47;;;;;;;1.70;1.60;;;20.00;43.80;;;23.91;29.21;102815.28;5079931;28;20048;-85
2021/12/16 04:02:32;;;;;;;2.65;2.08;;;20.00;43.80;;;23.93;29.21;102815.22;5081837;28;20043;-85
2021/12/16 04:05:00;;;;;;;2.10;1.80;;;20.00;43.80;;;23.94;29.01;102820.50;5063239;28;20048;-85
2021/12/16 04:07:32;;;;;;;2.13;1.90;;;20.00;43.70;;;23.94;29.19;102828.50;5078007;28;20413;-85
2021/12/16 04:10:31;;;;;;;2.17;1.98;;;20.10;43.70;;;23.97;28.98;102832.84;5082678;28;20044;-85
2021/12/16 04:12:59;;;;;;;1.80;1.70;;;20.10;43.60;;;23.98;29.10;102832.78;5080699;28;20391;-85
2021/12/16 04:15:25;;;;;;;2.00;1.70;;;20.10;43.60;;;23.99;29.16;102830.97;5079223;28;20056;-85
2021/12/16 04:17:54;;;;;;;1.83;1.73;;;20.10;43.50;;;24.01;29.09;102839.78;5079314;28;20043;-85
2021/12/16 04:20:47;;;;;;;1.90;1.65;;;20.10;43.50;;;23.99;28.80;102847.00;5087775;28;20496;-85
2021/12/16 04:23:14;;;;;;;1.85;1.73;;;20.10;43.50;;;24.02;29.02;102845.06;5079784;28;20055;-85
2021/12/16 04:25:47;;;;;;;1.80;1.70;;;20.20;43.60;;;24.02;29.07;102853.09;5079446;28;20078;-85
2021/12/16 04:28:22;;;;;;;2.58;1.88;;;20.20;43.60;;;24.00;29.15;102838.03;5062660;28;20058;-85
2021/12/16 04:30:50;;;;;;;1.70;1.60;;;20.20;43.60;;;24.03;29.13;102844.13;5079550;28;20039;-85
2021/12/16 04:33:16;;;;;;;1.52;1.42;;;20.20;43.50;;;24.03;28.86;102837.91;5062766;28;20052;-85
2021/12/16 04:35:42;;;;;;;1.83;1.65;;;20.20;43.50;;;24.06;29.23;102843.13;5096194;28;20485;-85
2021/12/16 04:38:10;;;;;;;2.53;1.90;;;20.20;43.50;;;24.06;28.90;102829.78;5095932;28;20094;-85
2021/12/16 04:40:39;;;;;;;1.65;1.55;;;20.20;44.00;;;24.09;29.08;102826.06;5079592;28;20071;-85
2021/12/16 04:43:08;;;;;;;2.15;1.83;;;20.20;43.40;;;24.07;28.98;102833.31;5080223;28;20070;-85
2021/12/16 04:45:51;;;;;;;2.05;1.77;;;20.20;43.40;;;24.08;28.96;102832.38;5067945;28;20047;-85
2021/12/16 04:48:18;;;;;;;1.77;1.67;;;20.20;43.40;;;24.11;29.07;102841.13;5062464;28;20043;-85
2021/12/16 04:50:45;;;;;;;1.58;1.45;;;20.30;43.50;;;24.11;28.83;102848.28;5079247;28;20043;-85
2021/12/16 04:53:13;;;;;;;1.95;1.77;;;20.30;43.50;;;24.08;29.02;102843.94;5062814;28;20458;-85
2021/12/16 04:55:42;;;;;;;1.95;1.65;;;20.30;43.40;;;24.11;28.91;102849.13;5080138;28;20040;-85
2021/12/16 04:58:09;;;;;;;1.73;1.63;;;20.30;43.40;;;24.14;28.87;102854.34;5061716;28;20089;-85
2021/12/16 05:00:35;;;;;;;2.00;1.85;;;20.30;43.30;;;24.15;28.79;102863.25;5079046;28;20043;-85
2021/12/16 05:03:22;;;;;;;1.98;1.67;;;20.30;43.30;;;24.17;28.98;102877.41;5098379;28;20087;-85
2021/12/16 05:05:48;;;;;;;2.00;1.80;;;20.30;43.40;;;24.18;28.80;102881.81;5062589;28;20552;-85
2021/12/16 05:08:14;;;;;;;1.95;1.70;;;20.30;43.30;;;24.18;28.72;102868.44;5078921;28;20134;-85
2021/12/16 05:10:54;;;;;;;2.20;1.77;;;20.30;43.40;;;24.21;28.93;102881.69;5080723;28;20054;-85
2021/12/16 05:13:24;;;;;;;1.63;1.52;;;20.30;43.40;;;24.22;28.86;102896.78;5062396;28;20050;-85
2021/12/16 05:15:52;;;;;;;1.90;1.40;;;20.30;43.40;;;24.22;28.95;102911.03;5061013;28;20508;-85
2021/12/16 05:18:31;;;;;;;1.92;1.77;;;20.30;43.40;;;24.24;28.74;102916.31;5095660;28;20047;-85
2021/12/16 05:21:09;;;;;;;1.77;1.52;;;20.30;43.30;;;24.21;28.89;102916.44;5080688;28;20389;-84
2021/12/16 05:26:21;;;;;;;1.65;1.55;;;20.30;43.30;;;24.26;28.80;102919.78;5114048;28;20067;-85
2021/12/16 05:29:03;;;;;;;1.80;1.63;;;20.30;43.30;;;24.26;28.62;102934.94;5080777;28;20146;-85
2021/12/16 05:31:29;;;;;;;3.00;1.92;;;20.30;43.30;;;24.24;28.95;102927.00;5061768;28;20069;-85
2021/12/16 05:33:59;;;;;;;1.90;1.70;;;20.40;43.40;;;24.25;28.96;102926.03;5078510;28;20071;-85
2021/12/16 05:36:26;;;;;;;1.80;1.55;;;20.30;43.30;;;24.26;28.81;102926.91;5078424;28;20061;-85
2021/12/16 05:38:53;;;;;;;2.03;1.70;;;20.30;43.30;;;24.26;28.80;102927.78;5061958;28;20054;-85
2021/12/16 05:41:22;;;;;;;1.60;1.50;;;20.30;43.30;;;24.26;28.62;102934.94;5078377;28;20116;-85
2021/12/16 05:43:53;;;;;;;1.83;1.70;;;20.30;43.30;;;24.27;28.64;102934.00;5078832;28;20051;-85
2021/12/16 05:46:22;;;;;;;1.52;1.42;;;20.30;43.30;;;24.27;28.69;102929.50;5078409;28;20054;-85
2021/12/16 05:48:51;;;;;;;1.80;1.70;;;20.30;43.30;;;24.29;28.56;102926.78;5078303;28;20081;-85
2021/12/16 05:51:34;;;;;;;1.80;1.60;;;20.30;43.30;;;24.30;28.67;102932.06;5077129;28;20047;-85
2021/12/16 05:54:04;;;;;;;1.85;1.60;;;20.40;43.30;;;24.30;28.57;102940.06;5074994;28;20055;-85
2021/12/16 05:56:38;;;;;;;1.90;1.80;;;20.40;43.30;;;24.31;28.54;102949.00;5043434;28;20048;-85
2021/12/16 05:59:06;;;;;;;1.65;1.40;;;20.30;43.30;;;24.29;28.69;102945.50;5058347;28;20040;-85
2021/12/16 06:01:37;;;;;;;1.92;1.52;;;20.40;43.30;;;24.28;28.63;102946.44;5041505;28;20052;-85
2021/12/16 06:04:04;;;;;;;1.60;1.50;;;20.30;43.30;;;24.31;28.70;102955.19;5056818;28;20067;-85
2021/12/16 06:06:31;;;;;;;1.60;1.50;;;20.40;43.30;;;24.27;28.54;102945.56;5040524;28;20052;-85
2021/12/16 06:08:58;;;;;;;1.63;1.50;;;20.40;43.30;;;24.32;28.65;102950.72;5055039;28;20067;-85
2021/12/16 06:11:29;;;;;;;1.92;1.42;;;20.40;43.30;;;24.30;28.69;102949.91;5074476;28;20050;-85
2021/12/16 06:27:37;;;;;;;2.08;1.70;;;20.40;43.30;;;24.28;28.80;102973.19;5059300;28;20044;-85
2021/12/16 06:30:10;;;;;;;1.98;1.80;;;20.40;43.30;;;24.22;28.74;102977.84;5057327;28;20040;-85
2021/12/16 06:32:36;;;;;;;1.50;1.40;;;20.30;43.30;;;24.28;28.71;102984.72;5074843;28;20036;-85
2021/12/16 06:35:05;;;;;;;1.80;1.55;;;20.30;43.30;;;24.26;28.71;102978.59;5057569;28;20055;-85
2021/12/16 06:37:32;;;;;;;2.33;1.60;;;20.40;43.30;;;24.28;28.62;102983.88;5057851;28;20044;-85
2021/12/16 06:39:58;;;;;;;1.55;1.40;;;20.30;43.30;;;24.28;28.72;102986.53;5060800;28;20093;-85
2021/12/16 06:42:28;;;;;;;2.17;1.70;;;20.30;43.30;;;24.31;28.71;102997.97;5061772;28;20048;-85
2021/12/16 06:45:04;;;;;;;3.67;1.80;;;20.30;43.80;;;24.27;28.66;103001.69;5061721;28;20052;-85
2021/12/16 06:47:39;;;;;;;1.63;1.50;;;20.30;43.30;;;24.27;28.78;103008.84;5079176;28;20495;-85
2021/12/16 06:50:07;;;;;;;1.88;1.33;;;20.30;43.30;;;24.28;28.78;103018.63;5062127;28;20048;-85
2021/12/16 06:52:39;;;;;;;1.65;1.55;;;20.30;43.30;;;24.33;28.78;103021.97;5077816;28;20052;-85
2021/12/16 06:55:24;;;;;;;1.42;1.33;;;20.30;43.30;;;24.31;28.62;103021.16;5060061;28;20102;-85
2021/12/16 06:57:54;;;;;;;1.40;1.30;;;20.30;43.30;;;24.27;28.61;103001.69;5063494;28;20088;-85
2021/12/16 07:00:35;;;;;;;1.67;1.58;;;20.30;43.30;;;24.33;28.34;103012.13;5061914;28;20097;-85
2021/12/16 07:03:05;;;;;;;1.58;1.40;;;20.40;43.30;;;24.32;28.66;103022.91;5061776;28;20042;-85
2021/12/16 07:05:39;;;;;;;1.58;1.38;;;20.40;43.30;;;24.30;28.66;103025.63;5077719;28;20044;-85
2021/12/16 07:08:11;;;;;;;2.40;1.60;;;20.40;43.30;;;24.30;28.78;103028.31;5060735;28;20040;-85
2021/12/16 07:10:38;;;;;;;1.52;1.42;;;20.40;43.30;;;24.32;28.48;103023.75;5075465;28;20045;-85
2021/12/16 07:13:07;;;;;;;1.58;1.48;;;20.40;43.30;;;24.32;28.63;103036.25;5060538;28;20066;-85
2021/12/16 07:15:35;;;;;;;1.98;1.45;;;20.40;43.20;;;24.31;28.68;103042.56;5060476;28;20493;-85
2021/12/16 07:18:03;;;;;;;1.45;1.35;;;20.40;43.30;;;24.33;28.56;103041.53;5077175;28;20481;-85
2021/12/16 07:20:32;;;;;;;1.55;1.42;;;20.40;43.80;;;24.33;28.57;103056.72;5077259;28;20493;-85
2021/12/16 07:23:00;;;;;;;1.92;1.70;;;20.40;43.20;;;24.30;28.66;103052.38;5060679;28;20398;-85
2021/12/16 07:25:26;;;;;;;1.30;1.20;;;20.40;43.20;;;24.30;28.59;103064.88;5077125;28;20109;-84
2021/12/16 07:27:52;;;;;;;1.73;1.60;;;20.40;43.30;;;24.33;28.77;103075.44;5060342;28;20052;-85
2021/12/16 07:30:20;;;;;;;1.60;1.50;;;20.40;43.20;;;24.31;28.49;103077.31;5059816;28;20059;-85
2021/12/16 07:32:46;;;;;;;1.67;1.38;;;20.40;43.20;;;24.34;28.37;103079.84;5077030;28;20052;-84
2021/12/16 07:35:17;;;;;;;1.65;1.52;;;20.40;43.20;;;24.32;28.61;103087.91;5077025;28;20481;-84
2021/12/16 07:37:43;;;;;;;1.73;1.50;;;20.40;43.80;;;24.35;28.63;103087.78;5077097;28;20071;-85
2021/12/16 07:40:13;;;;;;;1.50;1.40;;;20.40;43.20;;;24.36;28.68;103092.22;5074919;28;20055;-84
2021/12/16 07:45:15;;;;;;;1.85;1.40;;;20.40;43.20;;;24.32;28.56;103089.72;5077718;28;20052;-84
2021/12/16 07:47:41;;;;;;;1.83;1.40;;;20.40;43.30;;;24.32;28.55;103093.25;5060628;28;20071;-85
2021/12/16 07:50:11;;;;;;;1.55;1.38;;;20.40;43.20;;;24.33;28.65;103096.84;5042031;28;20040;-85
2021/12/16 07:52:40;;;;;;;1.40;1.30;;;20.40;43.30;;;24.36;28.73;103115.44;5043666;28;20052;-85
2021/12/16 07:55:08;;;;;;;4.10;1.70;;;20.40;43.30;;;24.29;28.61;103106.78;5059696;28;20072;-85
2021/12/16 07:57:34;;;;;;;1.52;1.30;;;20.40;43.20;;;24.31;28.71;103112.06;5076631;28;20118;-85
2021/12/16 08:00:00;;;;;;;1.60;1.50;;;20.40;43.30;;;24.32;28.59;103111.97;5075417;28;20052;-85
2021/12/16 08:02:26;;;;;;;3.42;1.75;;;20.40;43.30;;;24.34;28.53;103117.25;5074827;28;20079;-85
2021/12/16 08:04:52;;;;;;;3.22;1.67;;;20.40;43.30;;;24.32;28.68;103109.31;5043017;28;20051;-84
2021/12/16 08:07:21;;;;;;;2.30;1.48;;;20.40;43.30;;;24.34;28.81;103125.28;5059815;28;20556;-85
2021/12/16 08:09:49;;;;;;;2.10;1.67;;;20.40;43.30;;;24.31;28.46;103112.94;5073995;28;20106;-85
2021/12/16 08:12:16;;;;;;;2.65;1.60;;;20.40;43.30;;;24.31;28.52;103118.28;5042951;28;20040;-84
2021/12/16 08:14:44;;;;;;;4.45;1.67;;;20.40;43.30;;;24.30;28.58;103126.38;5059447;28;20052;-85
2021/12/16 08:17:10;;;;;;;3.13;1.85;;;20.40;43.30;;;24.30;28.61;103126.38;5059746;28;20470;-84
2021/12/16 08:19:37;;;;;;;4.47;1.60;;;20.40;43.30;;;24.33;28.59;103137.81;5059320;28;20045;-85
2021/12/16 08:22:04;;;;;;;2.45;1.60;;;20.40;43.30;;;24.33;28.74;103126.25;5059710;28;20082;-85
2021/12/16 08:24:31;;;;;;;2.63;1.90;;;20.40;43.30;;;24.32;28.59;103125.34;5043513;28;20044;-85
2021/12/16 08:26:59;;;;;;;5.93;1.90;;;20.40;43.30;;;24.33;28.74;103127.09;5076067;28;20369;-84
2021/12/16 08:29:25;;;;;;;2.25;1.60;;;20.40;43.30;;;24.35;28.73;103127.91;5042991;28;20089;-84
2021/12/16 08:31:52;;;;;;;2.40;1.70;;;20.40;43.30;;;24.32;28.76;103127.16;5058042;28;20052;-85
2021/12/16 08:34:18;;;;;;;2.95;1.80;;;20.40;43.30;;;24.36;28.71;103135.00;5072627;28;20045;-85
2021/12/16 08:36:46;;;;;;;4.10;1.85;;;20.40;43.30;;;24.34;28.60;103139.56;5059339;28;20078;-85
2021/12/16 08:39:12;;;;;;;4.55;2.03;;;20.40;43.30;;;24.33;28.69;103145.81;5042103;28;20480;-85
2021/12/16 08:41:44;;;;;;;8.43;2.30;;;20.40;43.30;;;24.32;28.71;103144.06;5042876;28;20127;-85
2021/12/16 08:44:10;;;;;;;6.20;2.00;;;20.40;43.30;;;24.36;28.51;103145.69;5041376;28;20049;-85
2021/12/16 08:46:44;;;;;;;5.38;2.08;;;20.40;43.30;;;24.35;28.72;103148.44;5057432;28;20059;-85
2021/12/16 08:49:10;;;;;;;5.32;2.22;;;20.40;43.30;;;24.35;28.69;103146.63;5057776;28;20087;-85
2021/12/16 08:51:46;;;;;;;7.35;2.67;;;20.40;43.30;;;24.37;28.58;103160.81;5059160;28;20063;-85
2021/12/16 08:54:12;;;;;;;6.38;2.60;;;20.40;43.20;;;24.39;28.64;103148.25;5073232;28;20051;-85
2021/12/16 08:56:38;;;;;;;9.25;2.70;;;20.40;43.30;;;24.36;28.73;103150.19;5042699;28;20051;-85
2021/12/16 08:59:06;;;;;;;11.63;2.50;;;20.50;43.30;;;24.38;28.65;103164.34;5073092;28;20811;-85
2021/12/16 09:01:39;;;;;;;10.00;2.90;;;20.40;43.30;;;24.40;28.74;103182.06;5074564;28;20059;-86
2021/12/16 09:04:06;;;;;;;6.70;2.60;;;20.50;43.30;;;24.40;28.49;103184.75;5075461;28;20039;-86
2021/12/16 09:06:32;;;;;;;10.73;2.38;;;20.50;43.30;;;24.42;28.69;103200.72;5058037;28;20091;-86
2021/12/16 09:08:59;;;;;;;6.28;2.42;;;20.40;43.20;;;24.38;28.61;103189.28;5058588;28;20489;-86
2021/12/16 09:11:28;;;;;;;9.50;2.67;;;20.40;43.20;;;24.41;28.74;103193.66;5075478;28;20477;-86
2021/12/16 09:13:57;;;;;;;13.82;2.85;;;20.50;43.30;;;24.39;28.67;103175.00;5058659;28;20040;-86
2021/12/16 09:16:27;;;;;;;11.90;2.83;;;20.40;43.20;;;24.40;28.61;103173.19;5074858;28;20052;-86
2021/12/16 09:18:55;;;;;;;6.20;2.40;;;20.50;43.20;;;24.41;28.76;103175.78;5058251;28;20044;-86
2021/12/16 09:21:27;;;;;;;7.30;2.92;;;20.40;43.20;;;24.37;28.74;103170.63;5058426;28;20056;-86
2021/12/16 09:23:55;;;;;;;7.05;2.45;;;20.40;43.20;;;24.38;28.71;103167.03;5041683;28;20055;-86
2021/12/16 09:26:23;;;;;;;5.95;2.42;;;20.40;43.20;;;24.42;28.60;103173.97;5058011;28;20480;-86
2021/12/16 09:28:50;;;;;;;10.73;3.25;;;20.50;43.20;;;24.41;28.72;103167.78;5057189;28;20052;-86
2021/12/16 09:31:20;;;;;;;7.82;2.22;;;20.40;43.20;;;24.37;28.61;103165.28;5056157;28;20150;-86
2021/12/16 09:33:51;;;;;;;8.75;2.78;;;20.50;43.20;;;24.42;28.67;103180.22;5058099;28;20040;-86
2021/12/16 09:36:25;;;;;;;9.45;2.92;;;20.50;43.20;;;24.39;28.49;103179.44;5058366;28;20440;-86
2021/12/16 09:38:52;;;;;;;7.55;2.83;;;20.50;43.20;;;24.39;28.60;103180.34;5058080;28;20102;-86
2021/12/16 09:41:20;;;;;;;6.60;2.22;;;20.50;43.20;;;24.41;28.59;103183.81;5058383;28;20036;-85
2021/12/16 09:43:51;;;;;;;9.95;2.53;;;20.50;43.20;;;24.38;28.76;103183.94;5058445;28;20048;-86
2021/12/16 09:46:23;;;;;;;7.72;2.38;;;20.50;43.20;;;24.42;28.61;103185.56;5058367;28;20048;-86
2021/12/16 09:48:51;;;;;;;6.85;2.47;;;20.50;43.10;;;24.41;28.63;103191.84;5057825;28;20507;-86
2021/12/16 09:51:23;;;;;;;7.82;2.65;;;20.50;43.10;;;24.39;28.55;103201.72;5040024;28;20040;-86
2021/12/16 09:53:59;;;;;;;4.45;2.25;;;20.50;43.10;;;24.39;28.80;103215.09;5058564;28;20055;-86
2021/12/16 09:56:27;;;;;;;4.75;2.40;;;20.50;43.10;;;24.43;28.59;103218.53;5058146;28;20052;-86
2021/12/16 09:58:55;;;;;;;10.90;3.15;;;20.50;43.10;;;24.41;28.56;103204.34;5041121;28;20047;-86
2021/12/16 10:01:24;;;;;;;6.40;2.60;;;20.50;43.10;;;24.44;28.70;103214.94;5057683;28;20039;-86
2021/12/16 10:04:02;;;;;;;9.35;2.80;;;20.50;43.10;;;24.42;28.59;103209.63;5041118;28;20051;-86
2021/12/16 10:06:30;;;;;;;7.75;2.60;;;20.50;43.00;;;24.44;28.68;103211.34;5058440;28;20131;-86
2021/12/16 10:08:59;;;;;;;7.68;2.90;;;20.50;43.10;;;24.45;28.34;103215.78;5040692;28;20052;-86
2021/12/16 10:11:25;;;;;;;7.05;2.80;;;20.50;43.00;;;24.45;28.57;103218.47;5074932;28;20425;-86
2021/12/16 10:14:16;;;;;;;8.20;2.78;;;20.50;43.10;;;24.44;28.55;103214.03;5073544;28;20056;-86
2021/12/16 10:19:34;;;;;;;9.32;3.03;;;20.50;43.10;;;24.44;28.60;103222.94;5060026;28;20044;-86
2021/12/16 10:22:28;;;;;;;6.60;2.42;;;20.50;43.00;;;24.46;28.72;103229.09;5041154;28;20040;-86
2021/12/16 10:24:57;;;;;;;7.10;2.40;;;20.50;43.10;;;24.44;28.54;103225.63;5074473;28;20048;-86
2021/12/16 10:27:27;;;;;;;5.70;2.38;;;20.50;43.10;;;24.44;28.57;103233.66;5073972;28;20071;-86
2021/12/16 10:30:05;;;;;;;6.57;2.42;;;20.50;43.00;;;24.43;28.55;103234.56;5072950;28;20401;-86
2021/12/16 10:32:37;;;;;;;8.95;2.67;;;20.50;43.00;;;24.46;28.53;103233.56;5057677;28;20052;-86
2021/12/16 10:35:14;;;;;;;6.82;2.40;;;20.50;43.00;;;24.48;28.45;103237.06;5074144;28;20389;-86
2021/12/16 10:37:52;;;;;;;8.70;2.40;;;20.60;43.10;;;24.47;28.58;103222.81;5054614;28;20052;-85
2021/12/16 10:40:28;;;;;;;8.93;2.67;;;20.50;43.00;;;24.41;28.50;103215.91;5073605;28;20048;-85
2021/12/16 10:42:56;;;;;;;7.00;2.60;;;20.60;43.10;;;24.49;28.55;103236.13;5056649;28;20401;-84
2021/12/16 10:45:36;;;;;;;9.50;2.92;;;20.60;43.10;;;24.45;28.61;103231.84;5039777;28;20052;-85
2021/12/16 10:48:24;;;;;;;5.82;2.03;;;20.50;43.00;;;24.51;28.67;103239.63;5073658;28;20383;-85
2021/12/16 10:51:13;;;;;;;14.35;3.05;;;20.50;43.00;;;24.49;28.60;103247.72;5073970;28;20052;-85
2021/12/16 10:54:12;;;;;;;11.95;2.95;;;20.60;43.00;;;24.48;28.54;103235.25;5092028;28;20059;-85
2021/12/16 10:56:59;;;;;;;11.68;3.53;;;20.60;43.00;;;24.46;28.63;103228.22;5092127;28;20493;-85
2021/12/16 10:59:27;;;;;;;10.32;3.22;;;20.60;43.10;;;24.49;28.59;103237.00;5057266;28;20040;-84
2021/12/16 11:02:18;;;;;;;8.35;3.13;;;20.60;43.00;;;24.47;28.48;103233.50;5073971;28;20040;-85
2021/12/16 11:05:06;;;;;;;9.77;3.13;;;20.60;43.00;;;24.46;28.46;103241.59;5056160;28;20135;-85
2021/12/16 11:07:40;;;;;;;7.53;3.38;;;20.60;43.00;;;24.43;28.57;103237.25;5056663;28;20051;-85
2021/12/16 11:10:18;;;;;;;12.98;3.25;;;20.60;43.00;;;24.47;28.71;103238.00;5073933;28;20048;-85
2021/12/16 11:13:02;;;;;;;6.75;2.47;;;20.60;43.00;;;24.47;28.55;103249.53;5057128;28;20052;-85
2021/12/16 11:15:38;;;;;;;7.70;2.75;;;20.60;43.00;;;24.48;28.51;103253.13;5073903;28;20048;-84
2021/12/16 11:18:14;;;;;;;10.13;2.88;;;20.60;42.90;;;24.53;28.49;103262.69;5073626;28;20067;-84
2021/12/16 11:20:52;;;;;;;6.60;2.20;;;20.60;42.90;;;24.52;28.47;103262.75;5057039;28;20043;-84
2021/12/16 11:23:29;;;;;;;11.02;2.97;;;20.60;43.00;;;24.51;28.54;103258.34;5073723;28;20546;-85
2021/12/16 11:26:00;;;;;;;7.00;2.67;;;20.60;43.00;;;24.47;28.38;103246.88;5043927;28;20044;-84
2021/12/16 11:28:39;;;;;;;8.13;2.85;;;20.60;42.90;;;24.55;28.46;103260.84;5060224;28;20071;-84
2021/12/16 11:31:12;;;;;;;6.60;2.50;;;20.60;43.00;;;24.54;28.58;103258.19;5060607;28;20047;-84
2021/12/16 11:33:47;;;;;;;9.98;3.40;;;20.60;42.90;;;24.54;28.34;103263.53;5077220;28;20046;-85
2021/12/16 11:36:29;;;;;;;8.23;2.63;;;20.60;42.90;;;24.53;28.43;103262.69;5077346;28;20077;-85
2021/12/16 11:39:09;;;;;;;5.82;2.45;;;20.60;42.90;;;24.56;28.36;103264.41;5060314;28;20052;-84
2021/12/16 11:41:48;;;;;;;7.63;3.00;;;20.60;43.00;;;24.55;28.41;103257.31;5076063;28;20116;-84
2021/12/16 11:44:42;;;;;;;5.63;2.38;;;20.60;42.90;;;24.54;28.50;103261.78;5075085;28;20135;-84
2021/12/16 11:47:26;;;;;;;7.75;2.78;;;20.60;43.40;;;24.55;28.60;103260.00;5060072;28;20052;-84
2021/12/16 11:50:04;;;;;;;8.77;3.10;;;20.60;43.10;;;24.58;28.32;103254.53;5075541;28;20055;-84
2021/12/16 11:52:35;;;;;;;7.50;3.08;;;20.60;42.80;;;24.57;28.51;103266.13;5043486;28;20067;-84
2021/12/16 11:55:15;;;;;;;9.55;3.15;;;20.60;42.90;;;24.55;28.58;103263.53;5060198;28;20040;-84
2021/12/16 11:57:49;;;;;;;5.10;2.58;;;20.60;42.90;;;24.54;28.43;103272.47;5043264;28;20048;-85
2021/12/16 12:00:25;;;;;;;10.70;3.15;;;20.60;42.90;;;24.56;28.40;103288.50;5060626;28;20048;-85
2021/12/16 12:02:56;;;;;;;6.72;2.83;;;20.60;42.90;;;24.54;28.51;103288.50;5059993;28;20052;-84
2021/12/16 12:05:33;;;;;;;12.57;2.67;;;20.60;42.90;;;24.54;28.54;103291.19;5042989;28;20043;-84
2021/12/16 12:08:05;;;;;;;7.20;2.55;;;20.60;42.90;;;24.55;28.46;103276.91;5060236;28;20389;-85
2021/12/16 12:10:46;;;;;;;7.60;2.50;;;20.60;42.90;;;24.54;28.52;103285.84;5059608;28;20572;-85
2021/12/16 12:13:23;;;;;;;12.25;2.97;;;20.60;42.90;;;24.53;28.27;103286.75;5094487;28;20090;-85
2021/12/16 12:16:12;;;;;;;8.48;3.17;;;20.60;42.90;;;24.54;28.45;103291.19;5095049;28;20122;-84
2021/12/16 12:18:48;;;;;;;10.23;3.05;;;20.60;42.90;;;24.56;28.56;103285.81;5058208;28;20055;-84
2021/12/16 12:21:32;;;;;;;8.63;2.63;;;20.60;42.90;;;24.55;28.33;103284.06;5076385;28;20401;-85
2021/12/16 12:24:24;;;;;;;8.50;2.75;;;20.60;42.90;;;24.53;28.47;103281.41;5076542;28;20097;-84
2021/12/16 12:26:57;;;;;;;6.32;2.80;;;20.60;42.90;;;24.59;28.21;103293.69;5074414;28;20493;-84
2021/12/16 12:29:36;;;;;;;6.28;2.42;;;20.60;42.90;;;24.54;28.45;103285.84;5058759;28;20044;-84
2021/12/16 12:32:10;;;;;;;5.22;2.67;;;20.60;42.80;;;24.57;28.46;103287.53;5059501;28;20587;-85
2021/12/16 12:34:47;;;;;;;8.98;3.33;;;20.60;42.80;;;24.57;28.31;103291.09;5059411;28;20468;-84